Time;durP1;ratioP1;P1;durP2;ratioP2;P2;SDS_P1;SDS_P2;PMS_P1;PMS_P2;Temp;Humidity;BMP_temperature;BMP_pressure;BME280_temperature;BME280_humidity;BME280_pressure;Samples;Min_cycle;Max_cycle;Signal;HPM_P1;HPM_P2
2023/10/29 00:00:55;;;;;;;0.63;0.60;;;10.90;99.90;;;;;;5113481;28;20040;-61
2023/10/29 00:03:20;;;;;;;1.73;1.08;;;10.20;99.90;;;;;;5114127;28;20044;-62
2023/10/29 00:05:46;;;;;;;0.52;0.52;;;11.10;99.90;;;;;;5113398;28;20069;-62
2023/10/29 00:08:12;;;;;;;0.30;0.30;;;10.40;99.90;;;;;;5114099;28;20050;-61
2023/10/29 00:10:37;;;;;;;0.55;0.55;;;11.40;99.90;;;;;;5114402;28;20485;-62
2023/10/29 00:13:04;;;;;;;0.77;0.77;;;11.30;99.90;;;;;;5113977;28;20437;-61
2023/10/29 00:15:30;;;;;;;2.80;1.15;;;10.40;99.90;;;;;;5114180;28;20071;-61
2023/10/29 00:17:56;;;;;;;0.30;0.30;;;10.90;99.90;;;;;;5114183;27;20092;-62
2023/10/29 00:20:21;;;;;;;0.85;0.85;;;10.80;99.90;;;;;;5113655;28;20051;-62
2023/10/29 00:22:47;;;;;;;0.43;0.43;;;11.30;99.90;;;;;;5113137;28;20075;-62
2023/10/29 00:25:13;;;;;;;0.35;0.35;;;10.60;99.90;;;;;;5113897;28;20085;-62
2023/10/29 00:27:38;;;;;;;0.88;0.65;;;11.00;99.90;;;;;;5113931;28;20412;-62
2023/10/29 00:30:05;;;;;;;0.50;0.50;;;10.80;99.90;;;;;;5113810;28;20043;-61
2023/10/29 00:32:31;;;;;;;0.90;0.90;;;11.00;99.90;;;;;;5113022;28;20050;-62
2023/10/29 00:34:57;;;;;;;0.38;0.38;;;10.40;99.90;;;;;;5113534;28;20036;-62
2023/10/29 00:37:23;;;;;;;0.30;0.30;;;10.90;99.90;;;;;;5113320;28;21146;-65
2023/10/29 00:39:48;;;;;;;0.45;0.45;;;11.10;99.90;;;;;;5113778;28;20040;-62
2023/10/29 00:42:14;;;;;;;0.60;0.43;;;10.70;99.90;;;;;;5113341;28;20110;-62
2023/10/29 00:44:40;;;;;;;0.80;0.68;;;11.40;99.90;;;;;;5113626;28;20101;-62
2023/10/29 00:47:05;;;;;;;0.50;0.50;;;10.60;99.90;;;;;;5113081;28;20607;-62
2023/10/29 00:49:33;;;;;;;0.52;0.52;;;10.50;99.90;;;;;;5113519;28;20503;-62
2023/10/29 00:51:59;;;;;;;0.52;0.52;;;11.20;99.90;;;;;;5113150;28;20380;-62
2023/10/29 00:54:24;;;;;;;;;;;11.70;99.90;;;;;;5113997;28;20442;-62
2023/10/29 00:56:53;;;;;;;0.50;0.50;;;11.00;99.90;;;;;;5112858;28;19928;-63
2023/10/29 00:59:23;;;;;;;0.50;0.50;;;10.50;99.90;;;;;;5113260;28;20079;-63
2023/10/29 01:01:49;;;;;;;0.60;0.52;;;11.10;99.90;;;;;;5113062;28;20384;-64
2023/10/29 01:04:15;;;;;;;0.20;0.20;;;10.90;99.90;;;;;;5112909;28;20088;-62
2023/10/29 01:06:42;;;;;;;1.75;0.65;;;11.30;99.90;;;;;;5113034;28;20842;-61
2023/10/29 01:09:08;;;;;;;0.50;0.50;;;10.80;99.90;;;;;;5113169;28;20054;-61
2023/10/29 01:11:34;;;;;;;0.52;0.52;;;11.60;99.90;;;;;;5112819;28;20083;-63
2023/10/29 01:14:03;;;;;;;0.20;0.20;;;11.40;99.90;;;;;;5113345;28;20403;-62
2023/10/29 01:16:28;;;;;;;0.40;0.40;;;10.30;99.90;;;;;;5112810;28;20365;-61
2023/10/29 01:19:01;;;;;;;0.80;0.52;;;10.40;99.90;;;;;;5113441;28;20054;-61
2023/10/29 01:21:27;;;;;;;2.72;1.85;;;10.50;99.90;;;;;;5112473;28;20055;-62
2023/10/29 01:23:53;;;;;;;0.73;0.73;;;11.50;99.90;;;;;;5112848;28;20043;-61
2023/10/29 01:26:19;;;;;;;1.05;1.00;;;11.10;99.90;;;;;;5112353;28;20046;-61
2023/10/29 01:28:45;;;;;;;0.80;0.80;;;11.20;99.90;;;;;;5112513;28;20043;-61
2023/10/29 01:31:11;;;;;;;0.43;0.43;;;10.60;99.90;;;;;;5112700;28;20487;-63
2023/10/29 01:33:37;;;;;;;0.55;0.55;;;11.30;99.90;;;;;;5112517;28;20377;-62
2023/10/29 01:36:04;;;;;;;0.43;0.43;;;12.00;99.90;;;;;;5112462;28;20437;-62
2023/10/29 01:38:30;;;;;;;0.30;0.30;;;11.10;99.90;;;;;;5111669;28;20077;-62
2023/10/29 01:40:55;;;;;;;2.28;2.08;;;11.90;99.90;;;;;;5112602;28;20040;-61
2023/10/29 01:43:21;;;;;;;0.30;0.30;;;10.90;99.90;;;;;;5112517;28;20043;-64
2023/10/29 01:45:47;;;;;;;0.30;0.30;;;10.90;99.90;;;;;;5111920;28;20039;-62
2023/10/29 01:48:12;;;;;;;0.40;0.40;;;11.90;99.90;;;;;;5112322;28;20053;-61
2023/10/29 01:50:38;;;;;;;0.20;0.20;;;11.90;99.90;;;;;;5112102;28;20043;-62
2023/10/29 01:53:04;;;;;;;0.50;0.50;;;10.90;99.90;;;;;;5112365;28;20047;-61
2023/10/29 01:55:30;;;;;;;0.30;0.30;;;12.10;99.90;;;;;;5112040;28;20032;-61
2023/10/29 01:57:55;;;;;;;0.30;0.30;;;10.80;99.90;;;;;;5112251;28;20126;-61
2023/10/29 02:00:21;;;;;;;0.45;0.45;;;11.80;99.90;;;;;;5111642;28;20115;-61
2023/10/29 02:02:49;;;;;;;0.30;0.30;;;11.70;99.90;;;;;;5112305;28;20047;-62
2023/10/29 02:05:15;;;;;;;0.50;0.50;;;12.10;99.90;;;;;;5111961;28;20047;-61
2023/10/29 02:07:41;;;;;;;0.30;0.30;;;12.20;99.90;;;;;;5111830;28;20050;-61
2023/10/29 02:10:07;;;;;;;0.50;0.50;;;12.20;99.90;;;;;;5111496;28;20048;-62
2023/10/29 02:12:32;;;;;;;0.20;0.20;;;11.20;99.90;;;;;;5112150;28;20123;-63
2023/10/29 02:14:58;;;;;;;0.50;0.50;;;12.10;99.90;;;;;;5111415;28;20043;-61
2023/10/29 02:17:27;;;;;;;0.30;0.30;;;11.10;99.90;;;;;;5111933;28;20049;-62
2023/10/29 02:19:55;;;;;;;0.50;0.50;;;12.00;99.90;;;;;;5111189;28;20135;-62
2023/10/29 02:22:24;;;;;;;0.32;0.32;;;11.70;99.90;;;;;;5111752;28;20523;-62
2023/10/29 02:24:50;;;;;;;2.92;1.17;;;12.10;99.90;;;;;;5110737;28;20144;-61
2023/10/29 02:27:16;;;;;;;;;;;12.40;99.90;;;;;;5112426;28;20048;-61
2023/10/29 02:29:42;;;;;;;0.20;0.20;;;12.60;99.90;;;;;;5111429;28;19923;-63
2023/10/29 02:32:08;;;;;;;;;;;11.60;99.90;;;;;;5112077;28;20127;-61
2023/10/29 02:34:34;;;;;;;0.55;0.55;;;12.50;99.90;;;;;;5111404;28;20010;-61
2023/10/29 02:36:59;;;;;;;0.20;0.20;;;12.20;99.90;;;;;;5111514;28;20075;-66
2023/10/29 02:39:25;;;;;;;0.22;0.22;;;11.50;99.90;;;;;;5111964;28;20050;-61
2023/10/29 02:41:51;;;;;;;0.30;0.30;;;12.70;99.90;;;;;;5111517;28;20403;-61
2023/10/29 02:44:16;;;;;;;0.35;0.35;;;12.50;99.90;;;;;;5111974;28;20081;-61
2023/10/29 02:46:42;;;;;;;0.25;0.25;;;11.40;99.90;;;;;;5111868;28;20540;-64
2023/10/29 02:49:08;;;;;;;0.20;0.20;;;11.20;99.90;;;;;;5111504;28;20040;-61
2023/10/29 02:51:33;;;;;;;0.30;0.28;;;11.20;99.90;;;;;;5110830;28;20116;-61
2023/10/29 02:53:59;;;;;;;0.30;0.30;;;11.50;99.90;;;;;;5111463;28;20042;-61
2023/10/29 02:56:25;;;;;;;0.30;0.30;;;12.00;99.90;;;;;;5111116;28;20130;-66
2023/10/29 02:58:50;;;;;;;0.32;0.32;;;12.70;99.90;;;;;;5111541;28;20055;-62
2023/10/29 03:01:16;;;;;;;0.50;0.50;;;12.80;99.90;;;;;;5111415;28;20380;-61
2023/10/29 03:03:43;;;;;;;0.57;0.57;;;12.10;99.90;;;;;;5111196;28;20043;-61
2023/10/29 03:06:09;;;;;;;0.40;0.40;;;12.70;99.90;;;;;;5111441;28;20094;-62
2023/10/29 03:08:35;;;;;;;0.10;0.10;;;11.50;99.90;;;;;;5111358;28;20147;-62
2023/10/29 03:11:02;;;;;;;0.10;0.10;;;11.40;99.90;;;;;;5111405;28;20055;-62
2023/10/29 03:13:28;;;;;;;0.47;0.40;;;12.40;99.90;;;;;;5111163;28;20050;-61
2023/10/29 03:15:55;;;;;;;0.47;0.47;;;11.20;99.90;;;;;;5111412;28;20050;-62
2023/10/29 03:18:20;;;;;;;;;;;12.00;99.90;;;;;;5111704;28;20073;-62
2023/10/29 03:20:46;;;;;;;0.35;0.35;;;12.10;99.90;;;;;;5111335;28;20006;-62
2023/10/29 03:23:12;;;;;;;0.13;0.13;;;11.20;99.90;;;;;;5111369;28;20122;-62
2023/10/29 03:25:38;;;;;;;0.20;0.20;;;12.00;99.90;;;;;;5110977;28;20039;-63
2023/10/29 03:28:04;;;;;;;0.20;0.20;;;11.40;99.90;;;;;;5111279;28;20054;-62
2023/10/29 03:30:29;;;;;;;1.20;0.57;;;11.80;99.90;;;;;;5110873;28;20475;-62
2023/10/29 03:32:55;;;;;;;1.17;0.98;;;12.60;99.90;;;;;;5111206;28;20075;-61
2023/10/29 03:35:21;;;;;;;0.20;0.20;;;11.70;99.90;;;;;;5112758;28;20055;-64
2023/10/29 03:37:46;;;;;;;7.43;0.43;;;12.90;99.90;;;;;;5114868;28;20523;-63
2023/10/29 03:40:12;;;;;;;0.68;0.60;;;11.50;99.90;;;;;;5114242;28;20051;-64
2023/10/29 03:42:38;;;;;;;0.20;0.20;;;12.50;99.90;;;;;;5114625;28;20054;-64
2023/10/29 03:45:04;;;;;;;0.45;0.35;;;11.60;99.90;;;;;;5114799;28;20075;-64
2023/10/29 03:47:29;;;;;;;;;;;12.40;99.90;;;;;;5088758;28;20100;-61
2023/10/29 03:49:55;;;;;;;0.10;0.10;;;12.40;99.90;;;;;;5114785;28;19919;-61
2023/10/29 03:52:24;;;;;;;0.10;0.10;;;12.60;99.90;;;;;;5115029;28;20040;-61
2023/10/29 03:54:50;;;;;;;0.10;0.10;;;11.90;99.90;;;;;;5114340;28;20036;-61
2023/10/29 03:57:16;;;;;;;0.43;0.43;;;11.40;99.90;;;;;;5114507;28;20032;-61
2023/10/29 03:59:41;;;;;;;0.20;0.20;;;12.10;99.90;;;;;;5114355;28;20047;-61
2023/10/29 04:02:07;;;;;;;0.30;0.30;;;11.90;99.90;;;;;;5114383;28;20047;-61
2023/10/29 04:04:33;;;;;;;0.30;0.30;;;11.20;99.90;;;;;;5114324;28;20506;-60
2023/10/29 04:07:00;;;;;;;0.10;0.10;;;11.50;99.90;;;;;;5114365;27;20091;-62
2023/10/29 04:09:26;;;;;;;1.00;1.00;;;;;;;;;;5114015;28;20051;-64
2023/10/29 04:11:51;;;;;;;;;;;11.50;99.90;;;;;;5114591;28;20092;-61
2023/10/29 04:14:17;;;;;;;0.25;0.25;;;11.60;99.90;;;;;;5114051;28;19924;-64
2023/10/29 04:16:43;;;;;;;0.30;0.30;;;11.90;99.90;;;;;;5113918;28;20506;-62
2023/10/29 04:19:09;;;;;;;0.30;0.30;;;11.80;99.90;;;;;;5113837;27;20044;-64
2023/10/29 04:21:34;;;;;;;0.20;0.20;;;11.50;99.90;;;;;;5146738;27;20105;-62
2023/10/29 04:24:00;;;;;;;0.28;0.28;;;11.10;99.90;;;;;;5113771;28;20058;-65
2023/10/29 04:26:26;;;;;;;0.30;0.30;;;12.10;99.90;;;;;;5113303;28;20036;-65
2023/10/29 04:28:52;;;;;;;0.13;0.13;;;11.80;99.90;;;;;;5113922;28;20200;-61
2023/10/29 04:31:18;;;;;;;;;;;12.00;99.90;;;;;;5114128;28;20457;-61
2023/10/29 04:33:45;;;;;;;0.20;0.20;;;11.80;99.90;;;;;;5113678;28;19923;-63
2023/10/29 04:36:22;;;;;;;0.10;0.10;;;11.90;99.90;;;;;;5113874;28;20419;-62
2023/10/29 04:38:48;;;;;;;0.30;0.30;;;12.40;99.90;;;;;;5113578;27;20047;-61
2023/10/29 04:41:14;;;;;;;;;;;12.70;99.90;;;;;;5114071;28;20125;-61
2023/10/29 04:43:41;;;;;;;0.20;0.20;;;12.50;99.90;;;;;;5113173;28;19920;-61
2023/10/29 04:46:10;;;;;;;0.22;0.22;;;12.20;99.90;;;;;;5112602;27;20593;-62
2023/10/29 04:48:37;;;;;;;0.10;0.10;;;12.70;99.90;;;;;;5112628;28;20040;-61
2023/10/29 04:51:06;;;;;;;0.20;0.20;;;12.40;99.90;;;;;;5113552;28;20047;-63
2023/10/29 04:53:32;;;;;;;0.10;0.10;;;12.20;99.90;;;;;;5112956;28;20099;-63
2023/10/29 04:55:58;;;;;;;0.20;0.20;;;12.40;99.90;;;;;;5113559;28;20075;-61
2023/10/29 04:58:23;;;;;;;0.10;0.10;;;11.70;99.90;;;;;;5099759;28;20091;-63
2023/10/29 05:00:49;;;;;;;0.60;0.22;;;11.80;99.90;;;;;;5113133;28;20086;-62
2023/10/29 05:03:15;;;;;;;0.10;0.10;;;10.20;99.90;;;;;;5112698;28;20054;-61
2023/10/29 05:05:41;;;;;;;0.10;0.10;;;11.90;99.90;;;;;;5111630;28;20142;-61
2023/10/29 05:08:06;;;;;;;0.10;0.10;;;11.30;99.90;;;;;;5112823;28;20122;-61
2023/10/29 05:10:32;;;;;;;0.30;0.30;;;11.60;99.90;;;;;;5113023;28;20402;-61
2023/10/29 05:12:58;;;;;;;0.10;0.10;;;11.30;99.90;;;;;;5132165;27;20044;-62
2023/10/29 05:15:24;;;;;;;0.20;0.20;;;11.10;99.90;;;;;;5113148;28;20039;-62
2023/10/29 05:17:50;;;;;;;0.22;0.22;;;11.30;99.90;;;;;;5112650;28;20047;-63
2023/10/29 05:20:16;;;;;;;0.32;0.32;;;11.50;99.90;;;;;;5113132;28;20047;-61
2023/10/29 05:22:41;;;;;;;0.20;0.20;;;11.20;99.90;;;;;;5112611;28;20108;-61
2023/10/29 05:25:08;;;;;;;0.20;0.20;;;11.40;99.90;;;;;;5112803;28;20383;-61
2023/10/29 05:27:34;;;;;;;0.10;0.10;;;11.40;99.90;;;;;;5112789;28;20082;-61
2023/10/29 05:30:00;;;;;;;0.10;0.10;;;11.20;99.90;;;;;;5112651;28;20044;-62
2023/10/29 05:32:26;;;;;;;0.30;0.30;;;11.20;99.90;;;;;;5112270;28;20050;-61
2023/10/29 05:34:52;;;;;;;0.10;0.10;;;11.20;99.90;;;;;;5112685;28;20039;-61
2023/10/29 05:37:18;;;;;;;0.20;0.20;;;11.40;99.90;;;;;;5112348;28;20055;-62
2023/10/29 05:39:43;;;;;;;0.20;0.20;;;11.00;99.90;;;;;;5112558;28;20047;-61
2023/10/29 05:42:10;;;;;;;0.20;0.20;;;11.20;99.90;;;;;;5112836;28;20560;-61
2023/10/29 05:44:35;;;;;;;0.13;0.13;;;11.40;99.90;;;;;;5112508;28;20044;-62
2023/10/29 05:47:01;;;;;;;0.20;0.20;;;11.80;99.90;;;;;;5112245;27;20058;-61
2023/10/29 05:49:27;;;;;;;0.20;0.20;;;11.80;99.90;;;;;;5112377;28;20050;-61
2023/10/29 05:51:53;;;;;;;0.10;0.10;;;11.40;99.90;;;;;;5112138;28;20048;-62
2023/10/29 05:54:18;;;;;;;1.90;1.75;;;11.80;99.90;;;;;;5112075;28;20401;-62
2023/10/29 05:56:45;;;;;;;0.10;0.10;;;11.70;99.90;;;;;;5112079;28;20040;-62
2023/10/29 05:59:12;;;;;;;0.22;0.22;;;11.60;99.90;;;;;;5111075;28;20124;-62
2023/10/29 06:01:38;;;;;;;0.20;0.20;;;11.80;99.90;;;;;;5111914;28;20118;-62
2023/10/29 06:04:05;;;;;;;0.35;0.35;;;12.30;99.90;;;;;;5111940;28;20043;-61
2023/10/29 06:06:31;;;;;;;1.55;0.32;;;12.00;99.90;;;;;;5143963;27;20051;-62
2023/10/29 06:08:56;;;;;;;0.10;0.10;;;12.10;99.90;;;;;;5112055;28;20048;-62
2023/10/29 06:11:22;;;;;;;0.10;0.10;;;11.80;99.90;;;;;;5111507;28;20043;-61
2023/10/29 06:13:48;;;;;;;0.30;0.30;;;12.30;99.90;;;;;;5111420;28;20052;-61
2023/10/29 06:16:14;;;;;;;0.10;0.10;;;11.70;99.90;;;;;;5111998;28;20075;-62
2023/10/29 06:18:39;;;;;;;0.10;0.10;;;12.00;99.90;;;;;;5112129;28;20168;-61
2023/10/29 06:21:05;;;;;;;0.30;0.30;;;12.00;99.90;;;;;;5111938;28;20069;-61
2023/10/29 06:23:31;;;;;;;0.10;0.10;;;11.80;99.90;;;;;;5112002;28;20454;-62
2023/10/29 06:25:57;;;;;;;0.20;0.20;;;12.20;99.90;;;;;;5111427;28;20047;-63
2023/10/29 06:28:22;;;;;;;0.20;0.20;;;11.90;99.90;;;;;;5112041;28;20055;-62
2023/10/29 06:30:48;;;;;;;0.20;0.20;;;12.00;99.90;;;;;;5111580;28;20399;-61
2023/10/29 06:33:14;;;;;;;0.28;0.28;;;12.20;99.90;;;;;;5111549;28;20044;-61
2023/10/29 06:35:40;;;;;;;0.20;0.20;;;11.70;99.90;;;;;;5111272;28;20046;-61
2023/10/29 06:38:06;;;;;;;0.10;0.10;;;12.00;99.90;;;;;;5111534;28;20051;-61
2023/10/29 06:40:32;;;;;;;0.15;0.15;;;11.60;99.90;;;;;;5111442;28;20092;-62
2023/10/29 06:42:57;;;;;;;0.20;0.20;;;11.30;99.90;;;;;;5111402;28;20052;-61
2023/10/29 06:45:23;;;;;;;0.17;0.17;;;11.60;99.90;;;;;;5111064;28;20055;-62
2023/10/29 06:47:49;;;;;;;0.10;0.10;;;11.70;99.90;;;;;;5111564;28;20047;-62
2023/10/29 06:50:15;;;;;;;0.30;0.30;;;11.70;99.90;;;;;;5111574;28;20052;-61
2023/10/29 06:52:41;;;;;;;0.30;0.30;;;11.70;99.90;;;;;;5111374;28;20051;-62
2023/10/29 06:55:08;;;;;;;0.10;0.10;;;11.80;99.90;;;;;;5109794;28;20467;-61
2023/10/29 06:57:36;;;;;;;0.10;0.10;;;11.70;99.90;;;;;;5111690;28;20079;-62
2023/10/29 07:00:01;;;;;;;0.10;0.10;;;11.60;99.90;;;;;;5110844;28;20051;-61
2023/10/29 07:02:27;;;;;;;0.20;0.20;;;11.70;99.90;;;;;;5111301;28;20387;-61
2023/10/29 07:04:53;;;;;;;1.00;0.85;;;11.30;99.90;;;;;;5110860;28;20483;-61
2023/10/29 07:07:19;;;;;;;0.10;0.10;;;12.00;99.90;;;;;;5111532;28;20058;-61
2023/10/29 07:09:44;;;;;;;0.10;0.10;;;11.60;99.90;;;;;;5112325;28;20130;-62
2023/10/29 07:12:10;;;;;;;0.10;0.10;;;11.80;99.90;;;;;;5115793;28;20079;-62
2023/10/29 07:14:36;;;;;;;0.10;0.10;;;11.50;99.90;;;;;;5115315;28;20054;-62
2023/10/29 07:17:01;;;;;;;0.10;0.10;;;11.60;99.90;;;;;;5115584;28;20503;-62
2023/10/29 07:19:27;;;;;;;0.10;0.10;;;12.00;99.90;;;;;;5115346;28;20035;-61
2023/10/29 07:21:53;;;;;;;0.20;0.20;;;12.00;99.90;;;;;;5115411;28;20044;-61
2023/10/29 07:24:18;;;;;;;0.20;0.20;;;12.30;99.90;;;;;;5103379;28;20048;-61
2023/10/29 07:26:44;;;;;;;0.20;0.20;;;12.10;99.90;;;;;;5099596;28;20033;-61
2023/10/29 07:29:11;;;;;;;0.20;0.20;;;11.80;99.90;;;;;;5092086;28;20048;-61
2023/10/29 07:31:37;;;;;;;0.10;0.10;;;11.80;99.90;;;;;;5094349;28;20090;-66
2023/10/29 07:34:03;;;;;;;0.20;0.20;;;11.80;99.90;;;;;;5108233;28;20094;-60
2023/10/29 07:36:29;;;;;;;0.10;0.10;;;12.40;99.90;;;;;;5096056;28;20055;-62
2023/10/29 07:38:55;;;;;;;;;;;11.90;99.90;;;;;;5110874;28;20043;-61
2023/10/29 07:41:21;;;;;;;0.10;0.10;;;11.80;99.90;;;;;;5096998;28;20004;-61
2023/10/29 07:43:48;;;;;;;0.10;0.10;;;11.80;99.90;;;;;;5109861;28;20043;-61
2023/10/29 07:46:14;;;;;;;0.17;0.17;;;11.70;99.90;;;;;;5113292;28;20043;-61
2023/10/29 07:48:40;;;;;;;;;;;12.00;99.90;;;;;;5113663;28;20072;-61
2023/10/29 07:51:06;;;;;;;0.38;0.38;;;12.20;99.90;;;;;;5114894;28;20030;-61
2023/10/29 07:53:31;;;;;;;0.20;0.20;;;12.40;99.90;;;;;;5114401;28;20047;-62
2023/10/29 07:56:19;;;;;;;0.30;0.30;;;12.30;99.90;;;;;;5114506;28;20062;-62
2023/10/29 07:58:46;;;;;;;0.13;0.13;;;12.40;99.90;;;;;;5114282;28;20057;-61
2023/10/29 08:01:13;;;;;;;0.20;0.20;;;12.60;99.90;;;;;;5114325;28;20147;-60
2023/10/29 08:03:40;;;;;;;0.20;0.20;;;12.40;99.90;;;;;;5113922;28;20051;-61
2023/10/29 08:06:06;;;;;;;1.30;0.45;;;12.80;99.90;;;;;;5114537;28;20055;-61
2023/10/29 08:08:32;;;;;;;;;;;12.80;99.90;;;;;;5114483;28;20054;-61
2023/10/29 08:10:57;;;;;;;0.10;0.10;;;13.10;99.90;;;;;;5113737;28;19923;-62
2023/10/29 08:13:23;;;;;;;0.10;0.10;;;12.70;99.90;;;;;;5113936;28;20065;-62
2023/10/29 08:15:49;;;;;;;0.20;0.20;;;12.70;99.90;;;;;;5114077;28;20497;-61
2023/10/29 08:18:14;;;;;;;0.40;0.40;;;12.60;99.90;;;;;;5114104;28;20041;-61
2023/10/29 08:20:41;;;;;;;9.25;1.00;;;12.40;99.90;;;;;;5113550;28;20048;-61
2023/10/29 08:23:07;;;;;;;0.22;0.22;;;12.50;99.90;;;;;;5112537;28;20514;-62
2023/10/29 08:25:36;;;;;;;;;;;12.30;99.90;;;;;;5114444;28;20101;-61
2023/10/29 08:28:02;;;;;;;0.13;0.13;;;12.10;99.90;;;;;;5113446;28;19931;-62
2023/10/29 08:30:28;;;;;;;0.20;0.20;;;11.90;99.90;;;;;;5113841;28;20489;-62
2023/10/29 08:32:54;;;;;;;0.20;0.20;;;12.20;99.90;;;;;;5113891;28;20124;-63
2023/10/29 08:35:20;;;;;;;0.20;0.20;;;12.00;99.90;;;;;;5114062;28;20110;-61
2023/10/29 08:37:46;;;;;;;2.00;1.42;;;11.90;99.90;;;;;;5113713;28;20863;-61
2023/10/29 08:40:12;;;;;;;0.10;0.10;;;11.90;99.90;;;;;;5113820;28;20047;-65
2023/10/29 08:42:38;;;;;;;;;;;12.10;99.90;;;;;;5080413;28;20154;-66
2023/10/29 08:45:04;;;;;;;0.10;0.10;;;11.80;99.90;;;;;;5086716;28;20010;-61
2023/10/29 08:47:31;;;;;;;0.10;0.10;;;12.00;99.90;;;;;;5113066;28;20047;-61
2023/10/29 08:49:57;;;;;;;0.10;0.10;;;12.10;99.90;;;;;;5107730;28;20043;-61
2023/10/29 08:52:23;;;;;;;;;;;12.20;99.90;;;;;;5113186;28;20047;-62
2023/10/29 08:54:49;;;;;;;0.68;0.43;;;12.50;99.90;;;;;;5112854;28;20355;-63
2023/10/29 08:57:15;;;;;;;0.20;0.20;;;12.50;99.90;;;;;;5100125;28;20047;-62
2023/10/29 08:59:42;;;;;;;3.00;1.85;;;12.70;99.90;;;;;;5112227;28;20059;-61
2023/10/29 09:02:08;;;;;;;0.25;0.25;;;12.80;99.90;;;;;;5098909;28;20441;-61
2023/10/29 09:04:37;;;;;;;;;;;12.30;99.90;;;;;;5112880;28;20063;-66
2023/10/29 09:07:04;;;;;;;0.45;0.28;;;12.90;99.90;;;;;;5097798;28;20382;-61
2023/10/29 09:09:30;;;;;;;0.10;0.10;;;12.60;99.90;;;;;;5112336;28;20081;-63
2023/10/29 09:11:56;;;;;;;0.20;0.20;;;12.70;99.90;;;;;;5101401;28;20082;-60
2023/10/29 09:14:22;;;;;;;0.30;0.30;;;12.80;99.90;;;;;;5111991;28;20062;-62
2023/10/29 09:16:48;;;;;;;1.65;1.55;;;13.40;99.90;;;;;;5103571;28;20040;-62
2023/10/29 09:19:14;;;;;;;;;;;13.10;99.90;;;;;;5113224;28;20043;-61
2023/10/29 09:21:40;;;;;;;0.20;0.20;;;13.10;99.90;;;;;;5095978;28;19928;-61
2023/10/29 09:24:06;;;;;;;0.10;0.10;;;13.00;99.90;;;;;;5105758;28;20043;-61
2023/10/29 09:26:33;;;;;;;0.10;0.10;;;13.10;99.90;;;;;;5109009;28;20079;-63
2023/10/29 09:29:00;;;;;;;0.10;0.10;;;13.30;99.90;;;;;;5105885;28;20039;-62
2023/10/29 09:31:26;;;;;;;0.20;0.20;;;13.30;99.90;;;;;;5110711;28;20484;-63
2023/10/29 09:33:51;;;;;;;0.15;0.15;;;13.20;99.90;;;;;;5112250;28;20050;-61
2023/10/29 09:36:18;;;;;;;0.10;0.10;;;13.00;99.90;;;;;;5112679;28;20092;-61
2023/10/29 09:38:43;;;;;;;0.10;0.10;;;13.00;99.90;;;;;;5111941;28;20118;-62
2023/10/29 09:41:09;;;;;;;0.25;0.25;;;12.70;99.90;;;;;;5112552;28;20181;-61
2023/10/29 09:43:42;;;;;;;0.15;0.15;;;12.80;99.90;;;;;;5112164;28;20040;-61
2023/10/29 09:46:10;;;;;;;0.10;0.10;;;12.60;99.90;;;;;;5112271;27;20051;-62
2023/10/29 09:48:39;;;;;;;0.10;0.10;;;12.90;99.90;;;;;;5111920;28;20126;-62
2023/10/29 09:51:06;;;;;;;0.10;0.10;;;12.70;99.90;;;;;;5112264;28;20040;-62
2023/10/29 09:53:35;;;;;;;0.20;0.20;;;12.80;99.90;;;;;;5112051;28;20051;-62
2023/10/29 09:56:00;;;;;;;0.20;0.20;;;12.70;99.90;;;;;;5112415;28;20044;-62
2023/10/29 09:58:27;;;;;;;0.20;0.20;;;12.40;99.90;;;;;;5112623;28;20043;-61
2023/10/29 10:00:53;;;;;;;0.10;0.10;;;13.20;99.90;;;;;;5112181;28;20051;-62
2023/10/29 10:03:19;;;;;;;0.10;0.10;;;13.00;99.90;;;;;;5111171;28;20058;-61
2023/10/29 10:05:46;;;;;;;0.30;0.30;;;13.20;99.90;;;;;;5112008;27;20052;-63
2023/10/29 10:08:12;;;;;;;0.73;0.73;;;13.00;99.90;;;;;;5111526;28;20062;-62
2023/10/29 10:10:43;;;;;;;0.32;0.32;;;13.00;99.90;;;;;;5111827;28;20135;-63
2023/10/29 10:13:10;;;;;;;2.28;1.17;;;13.30;99.90;;;;;;5112015;28;20391;-62
2023/10/29 10:15:37;;;;;;;0.20;0.20;;;13.40;99.90;;;;;;5111906;28;20056;-63
2023/10/29 10:18:04;;;;;;;0.20;0.20;;;13.60;99.90;;;;;;5111302;28;20047;-62
2023/10/29 10:20:31;;;;;;;0.10;0.10;;;13.70;99.90;;;;;;5111743;28;20062;-63
2023/10/29 10:23:11;;;;;;;0.10;0.10;;;13.90;99.90;;;;;;5111733;28;20046;-62
2023/10/29 10:25:37;;;;;;;0.32;0.32;;;14.00;99.90;;;;;;5111697;28;20044;-63
2023/10/29 10:28:03;;;;;;;;;;;13.90;99.90;;;;;;5111877;28;20046;-62
2023/10/29 10:30:33;;;;;;;0.23;0.23;;;13.90;99.90;;;;;;5111821;28;19920;-62
2023/10/29 10:33:20;;;;;;;0.20;0.20;;;13.70;99.90;;;;;;5085653;28;20089;-63
2023/10/29 10:35:51;;;;;;;0.20;0.20;;;13.80;99.90;;;;;;5111579;28;20039;-62
2023/10/29 10:38:22;;;;;;;0.10;0.10;;;13.50;99.90;;;;;;5111434;28;20483;-62
2023/10/29 10:40:58;;;;;;;0.10;0.10;;;13.70;99.90;;;;;;5111803;28;20048;-63
2023/10/29 10:43:26;;;;;;;0.10;0.10;;;13.50;99.90;;;;;;5111248;28;20506;-62
2023/10/29 10:45:54;;;;;;;0.10;0.10;;;13.30;99.90;;;;;;5114493;28;20127;-62
2023/10/29 10:48:20;;;;;;;0.28;0.28;;;13.30;99.90;;;;;;5115128;28;20047;-66
2023/10/29 10:50:46;;;;;;;;;;;13.00;99.90;;;;;;5116045;28;20043;-62
2023/10/29 10:53:13;;;;;;;18.85;0.70;;;13.40;99.90;;;;;;5115619;28;19927;-63
2023/10/29 10:55:40;;;;;;;0.20;0.20;;;13.20;99.90;;;;;;5115549;28;20055;-63
2023/10/29 10:58:06;;;;;;;0.57;0.57;;;13.00;99.90;;;;;;5115463;28;20039;-65
2023/10/29 11:00:33;;;;;;;0.30;0.22;;;13.20;99.90;;;;;;5089054;28;20051;-63
2023/10/29 11:02:59;;;;;;;3.10;0.65;;;13.10;99.90;;;;;;5115626;28;20083;-62
2023/10/29 11:05:30;;;;;;;0.30;0.30;;;13.20;99.90;;;;;;5115344;28;20492;-62
2023/10/29 11:07:56;;;;;;;5.38;0.40;;;13.20;99.90;;;;;;5114131;28;20051;-61
2023/10/29 11:10:25;;;;;;;0.98;0.35;;;13.30;99.90;;;;;;5115643;28;20039;-61
2023/10/29 11:12:51;;;;;;;0.30;0.30;;;13.40;99.90;;;;;;5115416;28;20108;-63
2023/10/29 11:15:17;;;;;;;0.20;0.20;;;13.30;99.90;;;;;;5115530;28;20122;-62
2023/10/29 11:17:56;;;;;;;0.20;0.20;;;13.70;99.90;;;;;;5115139;28;20055;-63
2023/10/29 11:20:37;;;;;;;0.32;0.32;;;13.70;99.90;;;;;;5115473;28;20048;-63
2023/10/29 11:23:07;;;;;;;1.08;0.52;;;13.70;99.90;;;;;;5115421;28;20069;-62
2023/10/29 11:25:33;;;;;;;0.20;0.20;;;13.50;99.90;;;;;;5114808;28;20069;-62
2023/10/29 11:27:59;;;;;;;0.25;0.22;;;13.40;99.90;;;;;;5115350;28;20051;-64
2023/10/29 11:30:28;;;;;;;0.47;0.47;;;13.50;99.90;;;;;;5114784;28;20380;-61
2023/10/29 11:33:09;;;;;;;0.10;0.10;;;13.20;99.90;;;;;;5115333;28;20052;-64
2023/10/29 11:35:36;;;;;;;0.10;0.10;;;13.50;99.90;;;;;;5114949;28;20043;-62
2023/10/29 11:38:33;;;;;;;0.10;0.10;;;13.60;99.90;;;;;;5114910;28;20048;-62
2023/10/29 11:40:59;;;;;;;0.32;0.32;;;13.40;99.90;;;;;;5114767;28;20047;-62
2023/10/29 11:43:25;;;;;;;0.50;0.50;;;13.80;99.90;;;;;;5114738;28;20411;-62
2023/10/29 11:46:00;;;;;;;;;;;14.30;99.90;;;;;;5115116;28;20079;-62
2023/10/29 11:48:28;;;;;;;0.47;0.32;;;14.20;99.90;;;;;;5114779;27;19920;-61
2023/10/29 11:51:08;;;;;;;0.10;0.10;;;14.20;99.90;;;;;;5114540;28;20122;-63
2023/10/29 11:53:36;;;;;;;0.20;0.20;;;14.70;99.90;;;;;;5114344;28;20087;-64
2023/10/29 11:56:09;;;;;;;11.18;0.75;;;14.00;99.90;;;;;;5114398;27;20491;-61
2023/10/29 11:58:36;;;;;;;0.20;0.20;;;14.10;99.90;;;;;;5114691;28;20585;-62
2023/10/29 12:01:02;;;;;;;0.38;0.20;;;14.00;99.90;;;;;;5114471;28;20050;-62
2023/10/29 12:03:31;;;;;;;0.20;0.20;;;14.00;99.90;;;;;;5114045;28;20044;-62
2023/10/29 12:05:57;;;;;;;0.13;0.13;;;14.20;99.90;;;;;;5114090;28;20105;-62
2023/10/29 12:08:23;;;;;;;;;;;13.90;99.90;;;;;;5114399;28;20487;-62
2023/10/29 12:10:54;;;;;;;2.75;1.27;;;13.80;99.90;;;;;;5114259;27;19919;-62
2023/10/29 12:13:20;;;;;;;1.70;0.65;;;14.10;99.90;;;;;;5114101;28;20050;-62
2023/10/29 12:15:57;;;;;;;0.25;0.25;;;13.90;99.90;;;;;;5114180;28;20059;-62
2023/10/29 12:18:23;;;;;;;;;;;13.80;99.90;;;;;;5088654;28;20063;-62
2023/10/29 12:20:49;;;;;;;0.47;0.20;;;14.00;99.90;;;;;;5113735;28;19926;-62
2023/10/29 12:23:16;;;;;;;0.63;0.30;;;13.80;99.90;;;;;;5114275;28;20123;-62
2023/10/29 12:25:45;;;;;;;0.75;0.47;;;13.60;99.90;;;;;;5146570;27;20051;-63
2023/10/29 12:28:12;;;;;;;0.20;0.20;;;13.60;99.90;;;;;;5113680;28;20046;-62
2023/10/29 12:30:42;;;;;;;0.10;0.10;;;13.40;99.90;;;;;;5099628;28;20044;-64
2023/10/29 12:33:26;;;;;;;4.50;0.47;;;13.30;99.90;;;;;;5112112;28;20130;-63
2023/10/29 12:35:56;;;;;;;0.25;0.25;;;13.00;99.90;;;;;;5111731;28;20040;-62
2023/10/29 12:38:23;;;;;;;0.10;0.10;;;13.50;99.90;;;;;;5113547;28;20044;-61
2023/10/29 12:41:01;;;;;;;0.20;0.20;;;13.40;99.90;;;;;;5113882;28;20047;-62
2023/10/29 12:43:36;;;;;;;0.10;0.10;;;13.30;99.90;;;;;;5113827;28;20043;-62
2023/10/29 12:46:06;;;;;;;0.10;0.10;;;13.50;99.90;;;;;;5113372;28;20601;-62
2023/10/29 12:48:32;;;;;;;0.32;0.32;;;13.40;99.90;;;;;;5113457;27;20058;-62
2023/10/29 12:50:58;;;;;;;;;;;13.60;99.90;;;;;;5104595;28;20693;-62